Casco Township, Michigan
Current Conditions -  °F | °C
As of 6:17 AM on Thursday 18 Dec 2014 (Local Time) from KPHN Reporting Station
Overcast Overcast  
Wind Chill: 22°   Ceiling: 1700
Heat Index: 28°   Visibility: 10mi
Dew Point: 28°   Wind: 6mph
Humidity: 100%   Direction: 270°W
Pressure: 30.16"   Gusts: NA
Location:  42.7668°N, 82.6735°W
Report Text: KPHN 181117Z AUTO 27005KT 10SM OVC017 M02/M02 A3016 RMK AO2
Loading
Personal Weather Stations






























Interactive Weather Map New forecast layout! Learn more

10-Day Weather Forecast

Advertisements
Track Severe Weather on mobile